Time;durP1;ratioP1;P1;durP2;ratioP2;P2;SDS_P1;SDS_P2;PMS_P1;PMS_P2;Temp;Humidity;BMP_temperature;BMP_pressure;BME280_temperature;BME280_humidity;BME280_pressure;Samples;Min_cycle;Max_cycle;Signal;HPM_P1;HPM_P2
2022/06/08 00:00:05;;;;;;;;;;;;;;;;;;5064351;28;19999;-76
2022/06/08 00:02:36;;;;;;;;;;;;;;;;;;5074694;28;19916;-76
2022/06/08 00:05:02;;;;;;;;;;;;;;;;;;5073276;28;19909;-76
2022/06/08 00:07:27;;;;;;;;;;;;;;;;;;5074918;28;20336;-75
2022/06/08 00:09:56;;;;;;;;;;;;;;;;;;5041460;28;19915;-75
2022/06/08 00:12:21;;;;;;;;;;;;;;;;;;5056682;28;19909;-76
2022/06/08 00:14:47;;;;;;;;;;;;;;;;;;5072247;28;19951;-75
2022/06/08 00:17:12;;;;;;;;;;;;;;;;;;5049039;28;19920;-76
2022/06/08 00:19:38;;;;;;;;;;;;;;;;;;5017208;28;20339;-76
2022/06/08 00:22:03;;;;;;;;;;;;;;;;;;5016643;28;20368;-76
2022/06/08 00:24:29;;;;;;;;;;;;;;;;;;5017127;28;20366;-75
2022/06/08 00:26:55;;;;;;;;;;;;;;;;;;5016373;28;19967;-76
2022/06/08 00:29:20;;;;;;;;;;;;;;;;;;5000171;28;19909;-76
2022/06/08 00:31:46;;;;;;;;;;;;;;;;;;5016275;28;19968;-76
2022/06/08 00:34:12;;;;;;;;;;;;;;;;;;5051923;28;19916;-75
2022/06/08 00:36:37;;;;;;;;;;;;;;;;;;5050120;28;19909;-74
2022/06/08 00:39:03;;;;;;;;;;;;;;;;;;5056537;28;19935;-76
2022/06/08 00:41:28;;;;;;;;;;;;;;;;;;5075153;28;20398;-76
2022/06/08 00:43:54;;;;;;;;;;;;;;;;;;5055817;28;20267;-76
2022/06/08 00:46:19;;;;;;;;;;;;;;;;;;5055938;28;19915;-75
2022/06/08 00:48:45;;;;;;;;;;;;;;;;;;5057017;28;19912;-74
2022/06/08 00:51:11;;;;;;;;;;;;;;;;;;5049939;28;19908;-76
2022/06/08 00:53:36;;;;;;;;;;;;;;;;;;5066894;28;19962;-76
2022/06/08 00:56:02;;;;;;;;;;;;;;;;;;5073537;28;19957;-76
2022/06/08 00:58:29;;;;;;;;;;;;;;;;;;5073922;28;20003;-76
2022/06/08 01:00:55;;;;;;;;;;;;;;;;;;5055905;28;19908;-75
2022/06/08 01:03:21;;;;;;;;;;;;;;;;;;5073308;28;19908;-75
2022/06/08 01:05:51;;;;;;;;;;;;;;;;;;5073543;28;19908;-76
2022/06/08 01:08:16;;;;;;;;;;;;;;;;;;5033534;28;19970;-76
2022/06/08 01:10:42;;;;;;;;;;;;;;;;;;5033529;28;19905;-75
2022/06/08 01:13:08;;;;;;;;;;;;;;;;;;5038637;28;20109;-75
2022/06/08 01:15:34;;;;;;;;;;;;;;;;;;5038638;28;20001;-76
2022/06/08 01:17:59;;;;;;;;;;;;;;;;;;5072836;28;19912;-76
2022/06/08 01:20:25;;;;;;;;;;;;;;;;;;5055173;28;19911;-76
2022/06/08 01:22:51;;;;;;;;;;;;;;;;;;5039595;28;20051;-75
2022/06/08 01:25:16;;;;;;;;;;;;;;;;;;5044694;28;19966;-74
2022/06/08 01:27:50;;;;;;;;;;;;;;;;;;5039807;28;19912;-74
2022/06/08 01:30:16;;;;;;;;;;;;;;;;;;5055062;28;19915;-74
2022/06/08 01:32:41;;;;;;;;;;;;;;;;;;5055433;28;19999;-74
2022/06/08 01:35:07;;;;;;;;;;;;;;;;;;5055073;28;19915;-76
2022/06/08 01:37:32;;;;;;;;;;;;;;;;;;5055413;28;20295;-76
2022/06/08 01:39:58;;;;;;;;;;;;;;;;;;5053625;28;19940;-76
2022/06/08 01:42:23;;;;;;;;;;;;;;;;;;5042531;28;19909;-75
2022/06/08 01:47:33;;;;;;;;;;;;;;;;;;5037936;28;20445;-78
2022/06/08 01:49:59;;;;;;;;;;;;;;;;;;5021441;28;19908;-76
2022/06/08 01:52:24;;;;;;;;;;;;;;;;;;5072481;28;19909;-75
2022/06/08 01:54:50;;;;;;;;;;;;;;;;;;5055272;28;19916;-75
2022/06/08 01:57:16;;;;;;;;;;;;;;;;;;5070944;28;20372;-75
2022/06/08 01:59:41;;;;;;;;;;;;;;;;;;5054841;28;19912;-76
2022/06/08 02:02:06;;;;;;;;;;;;;;;;;;5073028;28;20274;-76
2022/06/08 02:04:32;;;;;;;;;;;;;;;;;;5054849;28;20541;-74
2022/06/08 02:06:58;;;;;;;;;;;;;;;;;;5038283;28;20318;-75
2022/06/08 02:09:23;;;;;;;;;;;;;;;;;;5055974;28;19908;-75
2022/06/08 02:11:49;;;;;;;;;;;;;;;;;;5055813;28;19928;-75
2022/06/08 02:14:16;;;;;;;;;;;;;;;;;;5050549;28;20071;-74
2022/06/08 02:16:43;;;;;;;;;;;;;;;;;;5059952;28;19951;-75
2022/06/08 02:19:09;;;;;;;;;;;;;;;;;;5040997;28;19916;-74
2022/06/08 02:21:34;;;;;;;;;;;;;;;;;;5059508;28;19908;-74
2022/06/08 02:24:02;;;;;;;;;;;;;;;;;;5077561;28;20379;-74
2022/06/08 02:26:28;;;;;;;;;;;;;;;;;;5060512;28;19912;-75
2022/06/08 02:28:54;;;;;;;;;;;;;;;;;;5061934;28;19909;-74
2022/06/08 02:31:20;;;;;;;;;;;;;;;;;;5053334;28;19912;-75
2022/06/08 02:36:30;;;;;;;;;;;;;;;;;;5047357;28;20390;-74
2022/06/08 02:38:56;;;;;;;;;;;;;;;;;;5063904;28;19913;-76
2022/06/08 02:41:21;;;;;;;;;;;;;;;;;;5048092;28;19971;-73
2022/06/08 02:43:47;;;;;;;;;;;;;;;;;;5062689;28;19912;-75
2022/06/08 02:46:18;;;;;;;;;;;;;;;;;;5062568;28;19915;-76
2022/06/08 02:48:44;;;;;;;;;;;;;;;;;;5029242;28;20274;-76
2022/06/08 02:51:09;;;;;;;;;;;;;;;;;;5061364;28;19927;-76
2022/06/08 02:53:39;;;;;;;;;;;;;;;;;;5063425;28;20113;-74
2022/06/08 02:56:05;;;;;;;;;;;;;;;;;;5066089;28;20066;-74
2022/06/08 02:58:30;;;;;;;;;;;;;;;;;;5062848;28;19916;-78
2022/06/08 03:00:56;;;;;;;;;;;;;;;;;;5060799;28;19908;-76
2022/06/08 03:03:28;;;;;;;;;;;;;;;;;;5041901;28;20003;-77
2022/06/08 03:05:54;;;;;;;;;;;;;;;;;;5054589;28;20002;-76
2022/06/08 03:08:20;;;;;;;;;;;;;;;;;;5058793;28;19963;-76
2022/06/08 03:10:45;;;;;;;;;;;;;;;;;;5076921;28;20309;-76
2022/06/08 03:13:11;;;;;;;;;;;;;;;;;;5059347;28;19908;-73
2022/06/08 03:15:39;;;;;;;;;;;;;;;;;;5043745;28;19913;-76
2022/06/08 03:18:04;;;;;;;;;;;;;;;;;;5061036;28;19919;-74
2022/06/08 03:20:30;;;;;;;;;;;;;;;;;;5062160;28;19931;-76
2022/06/08 03:22:56;;;;;;;;;;;;;;;;;;5049406;28;19905;-75
2022/06/08 03:25:27;;;;;;;;;;;;;;;;;;5059767;28;19909;-75
2022/06/08 03:27:53;;;;;;;;;;;;;;;;;;5043298;28;20275;-76
2022/06/08 03:30:19;;;;;;;;;;;;;;;;;;5025873;28;19917;-74
2022/06/08 03:32:44;;;;;;;;;;;;;;;;;;5042352;28;19916;-75
2022/06/08 03:35:11;;;;;;;;;;;;;;;;;;5023631;28;19951;-77
2022/06/08 03:37:38;;;;;;;;;;;;;;;;;;5025970;28;19945;-76
2022/06/08 03:40:05;;;;;;;;;;;;;;;;;;5037671;28;19991;-75
2022/06/08 03:42:30;;;;;;;;;;;;;;;;;;5048358;28;19916;-75
2022/06/08 03:44:55;;;;;;;;;;;;;;;;;;5064256;28;19974;-75
2022/06/08 03:47:21;;;;;;;;;;;;;;;;;;5045570;28;19905;-75
2022/06/08 03:49:46;;;;;;;;;;;;;;;;;;5044830;28;20287;-76
2022/06/08 03:52:12;;;;;;;;;;;;;;;;;;5044281;28;20298;-76
2022/06/08 03:54:37;;;;;;;;;;;;;;;;;;5040004;28;20082;-76
2022/06/08 03:57:03;;;;;;;;;;;;;;;;;;5063756;28;19908;-76
2022/06/08 03:59:29;;;;;;;;;;;;;;;;;;5057314;28;19916;-76
2022/06/08 04:01:57;;;;;;;;;;;;;;;;;;5074501;28;20008;-76
2022/06/08 04:04:23;;;;;;;;;;;;;;;;;;5056591;28;19943;-76
2022/06/08 04:06:49;;;;;;;;;;;;;;;;;;5040153;28;19912;-75
2022/06/08 04:09:16;;;;;;;;;;;;;;;;;;5056885;28;19993;-77
2022/06/08 04:11:44;;;;;;;;;;;;;;;;;;5049554;28;19911;-76
2022/06/08 04:14:10;;;;;;;;;;;;;;;;;;5055649;28;19908;-75
2022/06/08 04:16:36;;;;;;;;;;;;;;;;;;5040253;28;19924;-76
2022/06/08 04:19:06;;;;;;;;;;;;;;;;;;5059940;28;19919;-74
2022/06/08 04:21:34;;;;;;;;;;;;;;;;;;5039716;28;19956;-75
2022/06/08 04:24:03;;;;;;;;;;;;;;;;;;5055716;28;20272;-76
2022/06/08 04:26:29;;;;;;;;;;;;;;;;;;5055977;28;19915;-74
2022/06/08 04:29:01;;;;;;;;;;;;;;;;;;5033553;28;20003;-76
2022/06/08 04:31:27;;;;;;;;;;;;;;;;;;5039801;28;20063;-76
2022/06/08 04:33:59;;;;;;;;;;;;;;;;;;5055221;28;20011;-75
2022/06/08 04:36:31;;;;;;;;;;;;;;;;;;5038940;28;19912;-76
2022/06/08 04:38:57;;;;;;;;;;;;;;;;;;5055365;28;19912;-75
2022/06/08 04:41:23;;;;;;;;;;;;;;;;;;5054744;28;19905;-75
2022/06/08 04:43:51;;;;;;;;;;;;;;;;;;5050267;28;19908;-76
2022/06/08 04:46:17;;;;;;;;;;;;;;;;;;5038247;28;19916;-75
2022/06/08 04:48:46;;;;;;;;;;;;;;;;;;5039076;28;19997;-76
2022/06/08 04:51:12;;;;;;;;;;;;;;;;;;5038827;28;19916;-76
2022/06/08 04:53:38;;;;;;;;;;;;;;;;;;5055558;28;19909;-75
2022/06/08 04:56:03;;;;;;;;;;;;;;;;;;5055871;28;20371;-75
2022/06/08 04:58:30;;;;;;;;;;;;;;;;;;5055579;28;19965;-75
2022/06/08 05:00:55;;;;;;;;;;;;;;;;;;5051835;28;19914;-75
2022/06/08 05:03:22;;;;;;;;;;;;;;;;;;5022813;28;19916;-75
2022/06/08 05:05:47;;;;;;;;;;;;;;;;;;5074542;28;19913;-74
2022/06/08 05:08:22;;;;;;;;;;;;;;;;;;5042404;28;20355;-75
2022/06/08 05:10:50;;;;;;;;;;;;;;;;;;5057445;28;19983;-74
2022/06/08 05:13:17;;;;;;;;;;;;;;;;;;5055696;28;19923;-75
2022/06/08 05:15:46;;;;;;;;;;;;;;;;;;5036310;28;20383;-76
2022/06/08 05:18:12;;;;;;;;;;;;;;;;;;5045578;28;19912;-76
2022/06/08 05:20:39;;;;;;;;;;;;;;;;;;5039728;28;20044;-77
2022/06/08 05:23:06;;;;;;;;;;;;;;;;;;5057375;28;19915;-75
2022/06/08 05:25:35;;;;;;;;;;;;;;;;;;5023090;28;19908;-74
2022/06/08 05:28:01;;;;;;;;;;;;;;;;;;5039119;28;19913;-75
2022/06/08 05:30:32;;;;;;;;;;;;;;;;;;5025811;28;20375;-75
2022/06/08 05:32:58;;;;;;;;;;;;;;;;;;5016630;28;19909;-77
2022/06/08 05:35:24;;;;;;;;;;;;;;;;;;5060123;28;19915;-75
2022/06/08 05:37:51;;;;;;;;;;;;;;;;;;5061110;28;19920;-76
2022/06/08 05:40:18;;;;;;;;;;;;;;;;;;5027318;28;19908;-75
2022/06/08 05:42:44;;;;;;;;;;;;;;;;;;5043193;28;19908;-74
2022/06/08 05:45:09;;;;;;;;;;;;;;;;;;5075176;28;19908;-76
2022/06/08 05:47:36;;;;;;;;;;;;;;;;;;5056560;28;19908;-74
2022/06/08 05:50:01;;;;;;;;;;;;;;;;;;5046953;28;19909;-75
2022/06/08 05:52:26;;;;;;;;;;;;;;;;;;5056102;28;19915;-76
2022/06/08 05:54:52;;;;;;;;;;;;;;;;;;5055793;28;19916;-73
2022/06/08 05:57:18;;;;;;;;;;;;;;;;;;5040693;28;19915;-75
2022/06/08 05:59:44;;;;;;;;;;;;;;;;;;5023779;28;19909;-76
2022/06/08 06:02:11;;;;;;;;;;;;;;;;;;5043024;28;19911;-78
2022/06/08 06:04:37;;;;;;;;;;;;;;;;;;5057313;28;20367;-74
2022/06/08 06:07:04;;;;;;;;;;;;;;;;;;5071438;28;19928;-75
2022/06/08 06:09:32;;;;;;;;;;;;;;;;;;5054511;28;19908;-76
2022/06/08 06:11:58;;;;;;;;;;;;;;;;;;5038001;28;20029;-75
2022/06/08 06:14:30;;;;;;;;;;;;;;;;;;5039389;28;19942;-75
2022/06/08 06:16:55;;;;;;;;;;;;;;;;;;5041059;28;19908;-77
2022/06/08 06:19:22;;;;;;;;;;;;;;;;;;5038073;28;19912;-76
2022/06/08 06:22:02;;;;;;;;;;;;;;;;;;5040552;28;19908;-75
2022/06/08 06:24:46;;;;;;;;;;;;;;;;;;5035253;28;19915;-75
2022/06/08 06:27:17;;;;;;;;;;;;;;;;;;5035323;28;19936;-75
2022/06/08 06:30:22;;;;;;;;;;;;;;;;;;4995247;28;19913;-76
2022/06/08 06:33:02;;;;;;;;;;;;;;;;;;4968601;28;20301;-74
2022/06/08 06:35:30;;;;;;;;;;;;;;;;;;4987898;28;19913;-77
2022/06/08 06:37:59;;;;;;;;;;;;;;;;;;4988155;28;19913;-76
2022/06/08 06:40:28;;;;;;;;;;;;;;;;;;4993230;28;19909;-76
2022/06/08 06:42:54;;;;;;;;;;;;;;;;;;5018431;28;20015;-76
2022/06/08 06:45:35;;;;;;;;;;;;;;;;;;5022724;28;19908;-75
2022/06/08 06:48:25;;;;;;;;;;;;;;;;;;5021152;28;19995;-75
2022/06/08 06:50:56;;;;;;;;;;;;;;;;;;5035575;28;19909;-76
2022/06/08 06:53:21;;;;;;;;;;;;;;;;;;5001306;28;19962;-76
2022/06/08 06:55:52;;;;;;;;;;;;;;;;;;5035069;28;19945;-75
2022/06/08 06:58:23;;;;;;;;;;;;;;;;;;5009743;28;19913;-77
2022/06/08 07:00:50;;;;;;;;;;;;;;;;;;5010796;28;19916;-75
2022/06/08 07:03:17;;;;;;;;;;;;;;;;;;5012023;28;19912;-75
2022/06/08 07:05:44;;;;;;;;;;;;;;;;;;5013131;28;19960;-76
2022/06/08 07:08:09;;;;;;;;;;;;;;;;;;4998288;28;19972;-76
2022/06/08 07:10:36;;;;;;;;;;;;;;;;;;5014195;28;19910;-76
2022/06/08 07:13:02;;;;;;;;;;;;;;;;;;5005441;28;19909;-76
2022/06/08 07:15:28;;;;;;;;;;;;;;;;;;5037037;28;19931;-76
2022/06/08 07:17:54;;;;;;;;;;;;;;;;;;5020689;28;19928;-77
2022/06/08 07:20:23;;;;;;;;;;;;;;;;;;5037796;28;19958;-76
2022/06/08 07:22:50;;;;;;;;;;;;;;;;;;5037674;28;19908;-76
2022/06/08 07:25:15;;;;;;;;;;;;;;;;;;5037490;28;19948;-77
2022/06/08 07:27:44;;;;;;;;;;;;;;;;;;5037526;28;19915;-76
2022/06/08 07:30:09;;;;;;;;;;;;;;;;;;5039642;28;19908;-76
2022/06/08 07:32:41;;;;;;;;;;;;;;;;;;5064253;28;19947;-75
2022/06/08 07:35:10;;;;;;;;;;;;;;;;;;5042674;28;19909;-75
2022/06/08 07:37:37;;;;;;;;;;;;;;;;;;5027065;28;19939;-77
2022/06/08 07:40:02;;;;;;;;;;;;;;;;;;5006089;28;20314;-76
2022/06/08 07:42:38;;;;;;;;;;;;;;;;;;;;;
2022/06/08 07:45:06;;;;;;;;;;;;;;;;;;5019895;28;19908;-74
2022/06/08 07:47:32;;;;;;;;;;;;;;;;;;5061970;28;20327;-76
2022/06/08 07:49:58;;;;;;;;;;;;;;;;;;5054351;28;19912;-75
2022/06/08 07:52:23;;;;;;;;;;;;;;;;;;5042158;28;20268;-76
2022/06/08 07:54:49;;;;;;;;;;;;;;;;;;5076177;28;19919;-75
2022/06/08 07:57:15;;;;;;;;;;;;;;;;;;5056924;28;19908;-74
2022/06/08 07:59:41;;;;;;;;;;;;;;;;;;5057701;28;19905;-76
2022/06/08 08:02:07;;;;;;;;;;;;;;;;;;5050179;28;19932;-75
2022/06/08 08:04:33;;;;;;;;;;;;;;;;;;5041451;28;19970;-74
2022/06/08 08:06:59;;;;;;;;;;;;;;;;;;5058718;28;19919;-76
2022/06/08 08:09:25;;;;;;;;;;;;;;;;;;5039836;28;20292;-75
2022/06/08 08:11:51;;;;;;;;;;;;;;;;;;5040456;28;19908;-76
2022/06/08 08:14:17;;;;;;;;;;;;;;;;;;5040049;28;19934;-74
2022/06/08 08:16:43;;;;;;;;;;;;;;;;;;5043868;28;19908;-77
2022/06/08 08:19:08;;;;;;;;;;;;;;;;;;5045084;28;20450;-75
2022/06/08 08:21:34;;;;;;;;;;;;;;;;;;5038204;28;19912;-77
2022/06/08 08:23:59;;;;;;;;;;;;;;;;;;5022625;28;19948;-76
2022/06/08 08:26:25;;;;;;;;;;;;;;;;;;5023441;28;20403;-73
2022/06/08 08:28:50;;;;;;;;;;;;;;;;;;5016344;28;19909;-76
2022/06/08 08:31:16;;;;;;;;;;;;;;;;;;5019858;28;20414;-75
2022/06/08 08:33:42;;;;;;;;;;;;;;;;;;5027900;28;19909;-74
2022/06/08 08:36:08;;;;;;;;;;;;;;;;;;5039022;28;19909;-75
2022/06/08 08:38:34;;;;;;;;;;;;;;;;;;5022641;28;19909;-76
2022/06/08 08:41:00;;;;;;;;;;;;;;;;;;5024676;28;19913;-74
2022/06/08 08:43:26;;;;;;;;;;;;;;;;;;5036381;28;19909;-77
2022/06/08 08:45:51;;;;;;;;;;;;;;;;;;5042884;28;20421;-74
2022/06/08 08:48:17;;;;;;;;;;;;;;;;;;5056081;28;20322;-76
2022/06/08 08:50:43;;;;;;;;;;;;;;;;;;5037281;28;20482;-77
2022/06/08 08:53:08;;;;;;;;;;;;;;;;;;5046080;28;20488;-75
2022/06/08 08:55:34;;;;;;;;;;;;;;;;;;5020779;28;19909;-75
2022/06/08 08:57:59;;;;;;;;;;;;;;;;;;5036845;28;19952;-76
2022/06/08 09:00:29;;;;;;;;;;;;;;;;;;5038213;28;20375;-76
2022/06/08 09:05:40;;;;;;;;;;;;;;;;;;5037977;28;20207;-76
2022/06/08 09:08:05;;;;;;;;;;;;;;;;;;5053321;28;20423;-76
2022/06/08 09:10:31;;;;;;;;;;;;;;;;;;5037677;28;19913;-75
2022/06/08 09:12:56;;;;;;;;;;;;;;;;;;5054882;28;19909;-76
2022/06/08 09:15:22;;;;;;;;;;;;;;;;;;5053930;28;20295;-76
2022/06/08 09:17:47;;;;;;;;;;;;;;;;;;5036630;28;19916;-77
2022/06/08 09:20:13;;;;;;;;;;;;;;;;;;5036695;28;19909;-76
2022/06/08 09:22:40;;;;;;;;;;;;;;;;;;5035639;28;19916;-78
2022/06/08 09:25:07;;;;;;;;;;;;;;;;;;5041890;28;20276;-75
2022/06/08 09:27:33;;;;;;;;;;;;;;;;;;5039925;28;20092;-77
2022/06/08 09:29:59;;;;;;;;;;;;;;;;;;4993647;28;19921;-76
2022/06/08 09:32:24;;;;;;;;;;;;;;;;;;5044199;28;20402;-75
2022/06/08 09:34:50;;;;;;;;;;;;;;;;;;5031789;28;20256;-77
2022/06/08 09:37:15;;;;;;;;;;;;;;;;;;5037716;28;19909;-78
2022/06/08 09:39:44;;;;;;;;;;;;;;;;;;5056808;28;19912;-78
2022/06/08 09:42:10;;;;;;;;;;;;;;;;;;5026929;28;20000;-77
2022/06/08 09:44:35;;;;;;;;;;;;;;;;;;5033052;28;19951;-77
2022/06/08 09:52:30;;;;;;;;;;;;;;;;;;5018970;28;19916;-77
2022/06/08 09:54:55;;;;;;;;;;;;;;;;;;5033761;28;20399;-78
2022/06/08 09:57:21;;;;;;;;;;;;;;;;;;5051034;28;19909;-78
2022/06/08 09:59:46;;;;;;;;;;;;;;;;;;5033630;28;19935;-76
2022/06/08 10:02:12;;;;;;;;;;;;;;;;;;5041655;28;19954;-77
2022/06/08 10:04:38;;;;;;;;;;;;;;;;;;5026941;28;19928;-78
2022/06/08 10:07:03;;;;;;;;;;;;;;;;;;5048026;28;19917;-78
2022/06/08 10:09:29;;;;;;;;;;;;;;;;;;5038216;28;19915;-77
2022/06/08 10:11:55;;;;;;;;;;;;;;;;;;5032216;28;19909;-76
2022/06/08 10:14:24;;;;;;;;;;;;;;;;;;5014924;28;19912;-78
2022/06/08 10:16:50;;;;;;;;;;;;;;;;;;5004844;28;19913;-77
2022/06/08 10:19:15;;;;;;;;;;;;;;;;;;5054475;28;19985;-76
2022/06/08 10:21:41;;;;;;;;;;;;;;;;;;5023505;28;19941;-75
2022/06/08 10:24:07;;;;;;;;;;;;;;;;;;5019769;28;19948;-75
2022/06/08 10:26:35;;;;;;;;;;;;;;;;;;5032437;28;19916;-75
2022/06/08 10:29:01;;;;;;;;;;;;;;;;;;5040996;28;19909;-78
2022/06/08 10:31:27;;;;;;;;;;;;;;;;;;5025162;28;19920;-78
2022/06/08 10:33:52;;;;;;;;;;;;;;;;;;5010557;28;19909;-77
2022/06/08 10:36:18;;;;;;;;;;;;;;;;;;5010422;28;19916;-77
2022/06/08 10:38:44;;;;;;;;;;;;;;;;;;5024677;28;19913;-78
2022/06/08 10:42:39;;;;;;;;;;;;;;;;;;5042148;28;19992;-79
2022/06/08 10:43:55;;;;;;;;;;;;;;;;;;5057132;28;19915;-76
2022/06/08 10:46:20;;;;;;;;;;;;;;;;;;5063240;28;19905;-77
2022/06/08 10:48:46;;;;;;;;;;;;;;;;;;5056099;28;19909;-78
2022/06/08 10:51:12;;;;;;;;;;;;;;;;;;5042412;28;20431;-77
2022/06/08 10:56:26;;;;;;;;;;;;;;;;;;5070773;28;19908;-73
2022/06/08 10:58:51;;;;;;;;;;;;;;;;;;5058335;28;19913;-72
2022/06/08 11:01:21;;;;;;;;;;;;;;;;;;5060770;28;19909;-82
2022/06/08 11:03:47;;;;;;;;;;;;;;;;;;5027131;28;19909;-81
2022/06/08 11:06:13;;;;;;;;;;;;;;;;;;5038712;28;19916;-82
2022/06/08 11:08:39;;;;;;;;;;;;;;;;;;5003882;28;19913;-80
2022/06/08 11:11:10;;;;;;;;;;;;;;;;;;5038031;28;19931;-81
2022/06/08 11:13:36;;;;;;;;;;;;;;;;;;5004218;28;20336;-82
2022/06/08 11:16:03;;;;;;;;;;;;;;;;;;5031256;28;19916;-80
2022/06/08 11:18:31;;;;;;;;;;;;;;;;;;5054440;28;19912;-81
2022/06/08 11:20:56;;;;;;;;;;;;;;;;;;5036348;28;19909;-81
2022/06/08 11:23:22;;;;;;;;;;;;;;;;;;5021072;28;19919;-82
2022/06/08 11:25:48;;;;;;;;;;;;;;;;;;5028879;28;19992;-82
2022/06/08 11:28:14;;;;;;;;;;;;;;;;;;5047648;28;20300;-83
2022/06/08 11:30:40;;;;;;;;;;;;;;;;;;5023122;28;19938;-81
2022/06/08 11:33:06;;;;;;;;;;;;;;;;;;5042457;28;19967;-82
2022/06/08 11:35:36;;;;;;;;;;;;;;;;;;5012441;28;19923;-83
2022/06/08 11:38:04;;;;;;;;;;;;;;;;;;5036329;28;19982;-81
2022/06/08 11:40:30;;;;;;;;;;;;;;;;;;5019777;28;19913;-83
2022/06/08 11:42:59;;;;;;;;;;;;;;;;;;5030920;28;19909;-81
2022/06/08 11:45:24;;;;;;;;;;;;;;;;;;5035868;28;19915;-83
2022/06/08 11:47:51;;;;;;;;;;;;;;;;;;5036633;28;19916;-80
2022/06/08 11:50:17;;;;;;;;;;;;;;;;;;5022677;28;19911;-82
2022/06/08 11:52:47;;;;;;;;;;;;;;;;;;5006026;28;19916;-82
2022/06/08 11:55:13;;;;;;;;;;;;;;;;;;5005572;28;19909;-84
2022/06/08 11:57:38;;;;;;;;;;;;;;;;;;5051184;28;19915;-80
2022/06/08 12:00:06;;;;;;;;;;;;;;;;;;5040080;28;20327;-82
2022/06/08 12:02:38;;;;;;;;;;;;;;;;;;5056223;28;20287;-81
2022/06/08 12:05:04;;;;;;;;;;;;;;;;;;5023678;28;19908;-81
2022/06/08 12:07:35;;;;;;;;;;;;;;;;;;5056181;28;19908;-81
2022/06/08 12:10:01;;;;;;;;;;;;;;;;;;5039466;28;19944;-80
2022/06/08 12:12:28;;;;;;;;;;;;;;;;;;5054963;28;20005;-81
2022/06/08 12:14:54;;;;;;;;;;;;;;;;;;5037312;28;19916;-81
2022/06/08 12:17:19;;;;;;;;;;;;;;;;;;5073043;28;19912;-81
2022/06/08 12:19:45;;;;;;;;;;;;;;;;;;5040188;28;20003;-81
2022/06/08 12:22:11;;;;;;;;;;;;;;;;;;5040449;28;20008;-82
2022/06/08 12:24:37;;;;;;;;;;;;;;;;;;5056564;28;19943;-82
2022/06/08 12:27:06;;;;;;;;;;;;;;;;;;5039726;28;19908;-82
2022/06/08 12:29:37;;;;;;;;;;;;;;;;;;5039952;28;19955;-82
2022/06/08 12:32:03;;;;;;;;;;;;;;;;;;5026405;28;19920;-81
2022/06/08 12:34:31;;;;;;;;;;;;;;;;;;5035264;28;20003;-80
2022/06/08 12:36:56;;;;;;;;;;;;;;;;;;5054041;28;19948;-80
2022/06/08 12:39:22;;;;;;;;;;;;;;;;;;5035804;28;19950;-81
2022/06/08 12:41:48;;;;;;;;;;;;;;;;;;5053730;28;19978;-82
2022/06/08 12:44:14;;;;;;;;;;;;;;;;;;5019451;28;19995;-80
2022/06/08 12:46:41;;;;;;;;;;;;;;;;;;5019439;28;19995;-82
2022/06/08 12:49:12;;;;;;;;;;;;;;;;;;5027929;28;19912;-84
2022/06/08 12:51:38;;;;;;;;;;;;;;;;;;5033237;28;19909;-82
2022/06/08 12:54:06;;;;;;;;;;;;;;;;;;5039725;28;19908;-82
2022/06/08 12:56:32;;;;;;;;;;;;;;;;;;5039128;28;20236;-83
2022/06/08 12:59:04;;;;;;;;;;;;;;;;;;5055743;28;19913;-82
2022/06/08 13:01:30;;;;;;;;;;;;;;;;;;5040183;28;19915;-81
2022/06/08 13:03:56;;;;;;;;;;;;;;;;;;5028142;28;19909;-80
2022/06/08 13:06:23;;;;;;;;;;;;;;;;;;5035744;28;19905;-81
2022/06/08 13:08:56;;;;;;;;;;;;;;;;;;5020789;28;19912;-81
2022/06/08 13:11:23;;;;;;;;;;;;;;;;;;5020076;28;19915;-81
2022/06/08 13:13:55;;;;;;;;;;;;;;;;;;5036973;28;19916;-81
2022/06/08 13:16:23;;;;;;;;;;;;;;;;;;5020846;28;19916;-82
2022/06/08 13:18:52;;;;;;;;;;;;;;;;;;5024264;28;19958;-80
2022/06/08 13:21:18;;;;;;;;;;;;;;;;;;5020533;28;19927;-82
2022/06/08 13:23:47;;;;;;;;;;;;;;;;;;5044201;28;19915;-82
2022/06/08 13:26:16;;;;;;;;;;;;;;;;;;5022752;28;19908;-81
2022/06/08 13:28:41;;;;;;;;;;;;;;;;;;5055373;28;20244;-81
2022/06/08 13:31:09;;;;;;;;;;;;;;;;;;5055128;28;19973;-81
2022/06/08 13:34:48;;;;;;;;;;;;;;;;;;5040618;28;19909;-82
2022/06/08 13:36:43;;;;;;;;;;;;;;;;;;5031098;28;19962;-81
2022/06/08 13:39:12;;;;;;;;;;;;;;;;;;5067275;28;20383;-80
2022/06/08 13:41:38;;;;;;;;;;;;;;;;;;5019285;28;19947;-81
2022/06/08 13:44:04;;;;;;;;;;;;;;;;;;5035740;28;19916;-80
2022/06/08 13:46:30;;;;;;;;;;;;;;;;;;5020571;28;19904;-82
2022/06/08 13:48:56;;;;;;;;;;;;;;;;;;5056527;28;19908;-80
2022/06/08 13:51:22;;;;;;;;;;;;;;;;;;5057560;28;19954;-80
2022/06/08 13:53:53;;;;;;;;;;;;;;;;;;5040527;28;19920;-81
2022/06/08 13:56:22;;;;;;;;;;;;;;;;;;5043467;28;19989;-81
2022/06/08 13:58:47;;;;;;;;;;;;;;;;;;5051841;28;19913;-79
2022/06/08 14:01:13;;;;;;;;;;;;;;;;;;5052854;28;19909;-82
2022/06/08 14:03:38;;;;;;;;;;;;;;;;;;5052435;28;20419;-80
2022/06/08 14:14:27;;;;;;;;;;;;;;;;;;5050161;28;19959;-81
2022/06/08 14:16:53;;;;;;;;;;;;;;;;;;5062199;28;19909;-80
2022/06/08 14:19:21;;;;;;;;;;;;;;;;;;5045718;28;19961;-80
2022/06/08 14:21:48;;;;;;;;;;;;;;;;;;5046343;28;20004;-82
2022/06/08 14:24:16;;;;;;;;;;;;;;;;;;5062339;28;19908;-81
2022/06/08 14:26:51;;;;;;;;;;;;;;;;;;5078552;28;19915;-82
2022/06/08 14:29:16;;;;;;;;;;;;;;;;;;5064314;28;19909;-82
2022/06/08 14:31:45;;;;;;;;;;;;;;;;;;5049206;28;20319;-83
2022/06/08 14:34:16;;;;;;;;;;;;;;;;;;5070519;28;19912;-81
2022/06/08 14:36:45;;;;;;;;;;;;;;;;;;5052372;28;19909;-81
2022/06/08 14:39:14;;;;;;;;;;;;;;;;;;5048657;28;19913;-81
2022/06/08 14:41:40;;;;;;;;;;;;;;;;;;5063759;28;19915;-81
2022/06/08 14:44:07;;;;;;;;;;;;;;;;;;5051194;28;19908;-81
2022/06/08 14:46:33;;;;;;;;;;;;;;;;;;5045678;28;20043;-81
2022/06/08 14:49:01;;;;;;;;;;;;;;;;;;5031925;28;19908;-84
2022/06/08 14:51:27;;;;;;;;;;;;;;;;;;5030157;28;19912;-82
2022/06/08 14:53:53;;;;;;;;;;;;;;;;;;5031288;28;19961;-81
2022/06/08 14:56:25;;;;;;;;;;;;;;;;;;5047729;28;19908;-82
2022/06/08 14:58:53;;;;;;;;;;;;;;;;;;5046777;28;19913;-80
2022/06/08 15:01:19;;;;;;;;;;;;;;;;;;5198107;22;19921;-82
2022/06/08 15:03:46;;;;;;;;;;;;;;;;;;5042847;28;19908;-82
2022/06/08 15:06:12;;;;;;;;;;;;;;;;;;5034254;28;19915;-83
2022/06/08 15:08:38;;;;;;;;;;;;;;;;;;5066489;28;19908;-80
2022/06/08 15:14:07;;;;;;;;;;;;;;;;;;5030927;28;20011;-83
2022/06/08 15:16:35;;;;;;;;;;;;;;;;;;5042971;28;20054;-83
2022/06/08 15:19:23;;;;;;;;;;;;;;;;;;5001573;28;19957;-81
2022/06/08 15:21:57;;;;;;;;;;;;;;;;;;4974868;28;20007;-83
2022/06/08 15:24:25;;;;;;;;;;;;;;;;;;4992805;28;19909;-83
2022/06/08 15:26:51;;;;;;;;;;;;;;;;;;5005711;28;19909;-81
2022/06/08 15:29:17;;;;;;;;;;;;;;;;;;4993662;28;19960;-82
2022/06/08 15:31:44;;;;;;;;;;;;;;;;;;5005538;28;19917;-80
2022/06/08 15:34:14;;;;;;;;;;;;;;;;;;4973334;28;19909;-79
2022/06/08 15:36:49;;;;;;;;;;;;;;;;;;5003744;28;19914;-81
2022/06/08 15:39:15;;;;;;;;;;;;;;;;;;5002747;28;19913;-79
2022/06/08 15:41:41;;;;;;;;;;;;;;;;;;4993655;28;19936;-81
2022/06/08 15:44:07;;;;;;;;;;;;;;;;;;5005303;28;19909;-80
2022/06/08 15:46:32;;;;;;;;;;;;;;;;;;5033061;28;19914;-81
2022/06/08 15:48:59;;;;;;;;;;;;;;;;;;4989314;28;19969;-82
2022/06/08 15:51:27;;;;;;;;;;;;;;;;;;5019841;28;20015;-82
2022/06/08 15:54:00;;;;;;;;;;;;;;;;;;4986074;28;19909;-81
2022/06/08 15:56:25;;;;;;;;;;;;;;;;;;4985491;28;19910;-82
2022/06/08 15:58:51;;;;;;;;;;;;;;;;;;4983353;28;20378;-81
2022/06/08 16:01:17;;;;;;;;;;;;;;;;;;4982879;28;19921;-79
2022/06/08 16:03:42;;;;;;;;;;;;;;;;;;4984473;28;19913;-79
2022/06/08 16:06:08;;;;;;;;;;;;;;;;;;5001804;28;19941;-82
2022/06/08 16:08:37;;;;;;;;;;;;;;;;;;5013799;28;19917;-80
2022/06/08 16:11:03;;;;;;;;;;;;;;;;;;5000261;28;20568;-80
2022/06/08 16:13:28;;;;;;;;;;;;;;;;;;5016161;28;20359;-82
2022/06/08 16:15:54;;;;;;;;;;;;;;;;;;5016764;28;19913;-81
2022/06/08 16:18:22;;;;;;;;;;;;;;;;;;5040242;28;19912;-81
2022/06/08 16:20:49;;;;;;;;;;;;;;;;;;5040210;28;19919;-80
2022/06/08 16:23:16;;;;;;;;;;;;;;;;;;4989916;28;19928;-80
2022/06/08 16:25:41;;;;;;;;;;;;;;;;;;5003347;28;19909;-80
2022/06/08 16:28:08;;;;;;;;;;;;;;;;;;5021336;28;19916;-80
2022/06/08 16:30:34;;;;;;;;;;;;;;;;;;4997575;28;19943;-82
2022/06/08 16:33:00;;;;;;;;;;;;;;;;;;5036935;28;20039;-81
2022/06/08 16:35:26;;;;;;;;;;;;;;;;;;5002664;28;19916;-81
2022/06/08 16:37:53;;;;;;;;;;;;;;;;;;4995299;28;19999;-80
2022/06/08 16:40:22;;;;;;;;;;;;;;;;;;5005823;28;19909;-80
2022/06/08 16:42:48;;;;;;;;;;;;;;;;;;5004514;28;19920;-81
2022/06/08 16:45:34;;;;;;;;;;;;;;;;;;4971438;28;20376;-81
2022/06/08 16:48:00;;;;;;;;;;;;;;;;;;4983938;28;19928;-81
2022/06/08 16:50:31;;;;;;;;;;;;;;;;;;4996687;28;20443;-80
2022/06/08 16:53:00;;;;;;;;;;;;;;;;;;5013085;28;20211;-80
2022/06/08 16:55:28;;;;;;;;;;;;;;;;;;5014773;28;19909;-81
2022/06/08 17:00:51;;;;;;;;;;;;;;;;;;4997123;28;19913;-81
2022/06/08 17:03:20;;;;;;;;;;;;;;;;;;4980357;28;19910;-78
2022/06/08 17:05:46;;;;;;;;;;;;;;;;;;4996772;28;20193;-80
2022/06/08 17:08:12;;;;;;;;;;;;;;;;;;4981008;28;19992;-82
2022/06/08 17:13:23;;;;;;;;;;;;;;;;;;4980524;28;19914;-81
2022/06/08 17:15:50;;;;;;;;;;;;;;;;;;4997358;28;20439;-82
2022/06/08 17:18:19;;;;;;;;;;;;;;;;;;5027132;28;20007;-82